Terminal Aerodrome Forecast
Issued by NWS Amarillo, TX

Home | Current Version | Previous Version | Text Only | Print | Product List | Glossary On
Versions: 1 2 3 4 5 6 7 8 9 10 11 12 13 14 15 16 17 18 19 20 21 22 23 24
000
FTUS44 KAMA 231044 AAD
TAFAMA
TAF AMD
KAMA 231044Z 2311/2406 VRB06KT 6SM BR OVC005
      TEMPO 2311/2315 SCT005 OVC010
     FM231500 08008KT 6SM BR FEW005 OVC015
     FM231800 11010KT P6SM SCT020 BKN040=

USA.gov is the U.S. government's official web portal to all federal, state and local government web resources and services.